• Join FlightAware (Why Join?)
  • Login
  • US Flag 
05:04PM EDT


 

Airport Tracker/Info


-or-


 

Live Flight TrackerFlight Track Log ✈ ASH3770 ✈ 05-Jul-2013 ✈ KORF - KIAD

Flight Track Log - Related Links

Times and Time Zones

All times are in EDT time to prevent confusion due to time zone crossing. See the ASH3770 flight status page for this flight to view local times or setup timezone preferences in your user account.

Time Position Orientation Groundspeed Altitude Reporting Facility
EDT Latitude Longitude Course Direction KTS MPH feet Rate Location/Type
05:17PM 36.9036 -76.1919 360° North 148 170 700  Level Washington Center
05:18PM 36.9681 -76.1925 360° North 179 206 4,000 2,160 Climbing Washington Center
05:19PM 36.9739 -76.2756 275° West 162 186 6,300 2,580 Climbing Washington Center
05:20PM 37.0069 -76.3644 295° West 219 252 9,200 2,640 Climbing Washington Center
05:21PM 37.0439 -76.4558 297° West 269 310 11,700 2,100 Climbing Washington Center
05:22PM 37.0950 -76.5736 299° West 322 371 13,400 1,080 Climbing Washington Center
05:23PM 37.1419 -76.6836 298° West 349 402 13,900 300 Climbing Washington Center
05:24PM 37.1869 -76.7858 299° West 342 394 14,000  Climbing Washington Center
05:25PM 37.2297 -76.8856 298° West 337 388 14,000  Level Washington Center
05:26PM 37.2683 -76.9778 298° West 331 381 14,000  Level Washington Center
05:27PM 37.3150 -77.0881 298° West 331 381 14,000  Level Washington Center
05:28PM 37.3683 -77.1650 311° West 331 381 14,000  Level Washington Center
05:29PM 37.4361 -77.2447 317° Northwest 331 381 14,000  Level Washington Center
05:30PM 37.5058 -77.3197 320° Northwest 331 381 14,000  Level Washington Center
05:31PM 37.5947 -77.3742 334° Northwest 336 387 14,000  Level Washington Center
05:32PM 37.6817 -77.4233 336° Northwest 341 392 14,000  Level Washington Center
05:33PM 37.7728 -77.4728 337° Northwest 346 398 14,000 -180 Level Washington Center
05:34PM 37.8658 -77.5250 336° Northwest 356 410 13,700 -960 Descending Washington Center
05:35PM 37.9483 -77.5694 337° Northwest 349 402 12,200 -1,500 Descending Washington Center
05:36PM 38.0325 -77.5347 18° North 302 348 10,700 -1,200 Descending Washington Center
05:37PM 38.1103 -77.4919 23° Northeast 290 334 9,900 -360 Descending Washington Center
05:38PM 38.1861 -77.4436 27° Northeast 297 342 10,000 -420 Climbing Washington Center
05:39PM 38.2661 -77.3981 24° Northeast 302 348 9,100 -1,260 Descending Washington Center
05:40PM 38.3417 -77.3575 23° Northeast 302 348 7,500 -1,500 Descending Washington Center
05:41PM 38.4231 -77.3594 359° North 288 331 6,100 -1,500 Descending Washington Center
05:42PM 38.5042 -77.3639 358° North 280 322 4,500 -1,080 Descending Washington Center
05:43PM 38.5814 -77.3683 357° North 275 316 4,000 -300 Descending Washington Center
05:44PM 38.6667 -77.3667 North 285 328 4,000  Level Potomac TRACON
05:45PM 38.7333 -77.3667 360° North 286 329 4,000  Level Potomac TRACON
05:46PM 38.8167 -77.3500 North 287 330 4,000 -420 Level Potomac TRACON
05:47PM 38.9000 -77.3500 360° North 285 328 3,300 -900 Descending Potomac TRACON
05:48PM 38.9667 -77.3500 360° North 254 292 2,400 -660 Descending Potomac TRACON
05:49PM 39.0333 -77.3500 360° North 235 270 2,000 -300 Descending Potomac TRACON
05:50PM 39.0500 -77.4167 288° West 212 244 1,900 -120 Descending Potomac TRACON